createdAt,value
2022-08-30T00:08:39.157Z,99406.25
2022-08-30T00:18:45.627Z,99403.75
2022-08-30T00:28:52.006Z,99404.66
2022-08-30T00:38:58.760Z,99414.09
2022-08-30T00:49:08.326Z,99411.16
2022-08-30T00:59:14.790Z,99426.56
2022-08-30T01:09:21.253Z,99413.25
2022-08-30T01:19:40.985Z,99411.94
2022-08-30T01:29:47.682Z,99412.31
2022-08-30T01:39:54.385Z,99414.59
2022-08-30T01:50:00.860Z,99428.09
2022-08-30T02:00:10.125Z,99458.50
2022-08-30T02:10:16.477Z,99447.13
2022-08-30T02:20:22.945Z,99433.38
2022-08-30T02:30:29.389Z,99421.91
2022-08-30T02:40:35.810Z,99428.09
2022-08-30T02:50:48.506Z,99408.03
2022-08-30T03:00:55.052Z,99393.81
2022-08-30T03:11:02.336Z,99415.53
2022-08-30T03:21:13.545Z,99418.47
2022-08-30T03:31:20.006Z,99419.47
2022-08-30T03:41:26.460Z,99415.34
2022-08-30T03:51:33.034Z,99423.41
2022-08-30T04:10:45.315Z,99290.53
2022-08-30T04:20:59.339Z,99432.59
2022-08-30T04:31:20.357Z,99434.31
2022-08-30T04:41:33.359Z,99440.75
2022-08-30T04:51:46.324Z,99444.41
2022-08-30T05:01:59.384Z,99433.88
2022-08-30T05:12:18.363Z,99434.03
2022-08-30T05:22:31.386Z,99436.34
2022-08-30T05:32:44.389Z,99435.84
2022-08-30T05:42:57.425Z,99402.91
2022-08-30T05:53:10.413Z,99414.25
2022-08-30T06:03:23.479Z,99437.44
2022-08-30T06:13:43.437Z,99426.47
2022-08-30T06:23:56.399Z,99432.38
2022-08-30T06:34:09.438Z,99455.53
2022-08-30T06:44:22.475Z,99454.56
2022-08-30T06:54:35.440Z,99454.13
2022-08-30T07:04:48.450Z,99462.38
2022-08-30T07:15:01.445Z,99442.97
2022-08-30T07:25:14.502Z,99424.28
2022-08-30T07:35:27.457Z,99402.56
2022-08-30T07:45:40.489Z,99371.19
2022-08-30T07:55:53.509Z,99356.25
2022-08-30T08:06:06.509Z,99354.88
2022-08-30T08:16:19.554Z,99362.09
2022-08-30T08:26:32.539Z,99375.28
2022-08-30T08:36:45.521Z,99361.88
2022-08-30T08:47:10.532Z,99374.56
2022-08-30T08:57:24.767Z,99378.28
2022-08-30T09:07:40.573Z,99373.09
2022-08-30T09:18:20.688Z,99362.31
2022-08-30T09:28:36.595Z,99335.91
2022-08-30T09:38:52.578Z,99340.66
2022-08-30T09:49:05.598Z,99340.00
2022-08-30T09:59:33.594Z,99328.31
2022-08-30T10:10:12.621Z,99329.31
2022-08-30T10:20:52.614Z,99315.47
2022-08-30T10:31:20.683Z,99312.03
2022-08-30T10:41:39.621Z,99308.16
2022-08-30T10:51:58.750Z,99297.53
2022-08-30T11:02:37.638Z,99294.25
2022-08-30T11:13:05.667Z,99283.28
2022-08-30T11:23:33.056Z,99268.59
2022-08-30T11:33:58.718Z,99272.03
2022-08-30T11:44:29.752Z,99207.19
2022-08-30T11:55:07.686Z,99258.59
2022-08-30T12:05:48.776Z,99232.75
2022-08-30T12:16:27.735Z,99235.22
2022-08-30T12:26:42.744Z,99320.50
2022-08-30T12:37:06.737Z,99716.78
2022-08-30T12:47:20.790Z,99485.66
2022-08-30T12:57:46.780Z,99446.78
2022-08-30T13:07:59.789Z,99659.97
2022-08-30T13:18:38.807Z,99329.59
2022-08-30T13:28:57.787Z,99093.41
2022-08-30T13:39:11.774Z,99040.28
2022-08-30T13:49:44.646Z,99418.56
2022-08-30T13:59:57.807Z,99434.56
2022-08-30T14:10:33.223Z,99432.81
2022-08-30T14:20:48.870Z,99479.97
2022-08-30T14:31:01.814Z,99391.75
2022-08-30T14:41:14.847Z,99175.84
2022-08-30T14:51:30.849Z,99169.63
2022-08-30T15:01:45.856Z,99138.66
2022-08-30T15:12:06.884Z,99114.19
2022-08-30T15:22:20.963Z,99102.03
2022-08-30T15:32:33.879Z,99074.69
2022-08-30T15:42:46.979Z,99088.50
2022-08-30T15:53:00.009Z,99121.38
2022-08-30T16:03:12.959Z,99192.94
2022-08-30T16:13:31.927Z,99213.63
2022-08-30T16:23:46.940Z,99190.19
2022-08-30T16:34:02.329Z,99185.94
2022-08-30T16:44:17.729Z,99173.31
2022-08-30T16:54:30.947Z,99185.41
2022-08-30T17:04:43.972Z,99226.34
2022-08-30T17:15:05.447Z,99251.00
2022-08-30T17:25:19.918Z,99278.38
2022-08-30T17:35:33.007Z,99301.34
2022-08-30T17:45:45.986Z,99311.22
2022-08-30T17:55:59.015Z,99327.59
2022-08-30T18:06:12.995Z,99332.47
2022-08-30T18:16:27.090Z,99344.38
2022-08-30T18:26:42.859Z,99354.78
2022-08-30T18:36:56.063Z,99370.78
2022-08-30T18:47:11.066Z,99368.59
2022-08-30T18:57:24.060Z,99374.72
2022-08-30T19:07:37.569Z,99375.69
2022-08-30T19:17:53.140Z,99368.72
2022-08-30T19:28:06.396Z,99363.47
2022-08-30T19:38:21.313Z,99360.91
2022-08-30T19:48:38.962Z,99358.88
2022-08-30T19:58:53.142Z,99362.72
2022-08-30T20:09:10.557Z,99359.84
2022-08-30T20:19:27.267Z,99352.16
2022-08-30T20:29:42.140Z,99358.50
2022-08-30T20:39:55.143Z,99346.13
2022-08-30T20:50:08.958Z,99342.53
2022-08-30T21:00:27.170Z,99339.75
2022-08-30T21:10:40.203Z,99342.91
2022-08-30T21:20:53.162Z,99343.13
2022-08-30T21:31:18.262Z,99329.09
2022-08-30T21:41:32.209Z,99324.03
2022-08-30T21:51:48.212Z,99476.53
2022-08-30T22:02:09.218Z,99694.31
2022-08-30T22:12:28.212Z,99962.22
2022-08-30T22:22:41.230Z,99966.56
2022-08-30T22:32:55.239Z,100048.59
2022-08-30T22:43:08.262Z,100140.81
2022-08-30T22:53:21.239Z,100104.81
2022-08-30T23:03:34.257Z,100047.78
2022-08-30T23:13:55.299Z,100061.22
2022-08-30T23:24:26.269Z,100079.94
2022-08-30T23:34:57.319Z,100082.44
2022-08-30T23:45:27.346Z,100052.75
2022-08-30T23:55:58.307Z,100104.50
